sensor_id;sensor_type;location;lat;lon;timestamp;P1;durP1;ratioP1;P2;durP2;ratioP2
41667;SDS011;27356;50.920;5.350;2023-01-19T00:00:06;22.08;;;12.80;;
41667;SDS011;27356;50.920;5.350;2023-01-19T00:02:34;20.70;;;13.38;;
41667;SDS011;27356;50.920;5.350;2023-01-19T00:05:01;19.65;;;12.75;;
41667;SDS011;27356;50.920;5.350;2023-01-19T00:07:28;18.25;;;12.52;;
41667;SDS011;27356;50.920;5.350;2023-01-19T00:09:57;21.25;;;13.32;;
41667;SDS011;27356;50.920;5.350;2023-01-19T00:12:23;23.50;;;12.95;;
41667;SDS011;27356;50.920;5.350;2023-01-19T00:14:50;18.50;;;11.80;;
41667;SDS011;27356;50.920;5.350;2023-01-19T00:17:16;20.60;;;12.27;;
41667;SDS011;27356;50.920;5.350;2023-01-19T00:19:42;21.05;;;12.93;;
41667;SDS011;27356;50.920;5.350;2023-01-19T00:22:07;21.45;;;12.88;;
41667;SDS011;27356;50.920;5.350;2023-01-19T00:24:33;24.25;;;13.77;;
41667;SDS011;27356;50.920;5.350;2023-01-19T00:26:59;20.50;;;13.35;;
41667;SDS011;27356;50.920;5.350;2023-01-19T00:29:27;19.63;;;13.05;;
41667;SDS011;27356;50.920;5.350;2023-01-19T00:31:57;22.35;;;13.70;;
41667;SDS011;27356;50.920;5.350;2023-01-19T00:34:26;26.58;;;13.18;;
41667;SDS011;27356;50.920;5.350;2023-01-19T00:37:00;20.40;;;13.38;;
41667;SDS011;27356;50.920;5.350;2023-01-19T00:39:27;21.20;;;12.43;;
41667;SDS011;27356;50.920;5.350;2023-01-19T00:41:52;21.88;;;12.45;;
41667;SDS011;27356;50.920;5.350;2023-01-19T00:44:36;24.23;;;12.68;;
41667;SDS011;27356;50.920;5.350;2023-01-19T00:47:02;19.08;;;12.73;;
41667;SDS011;27356;50.920;5.350;2023-01-19T00:49:29;21.00;;;12.45;;
41667;SDS011;27356;50.920;5.350;2023-01-19T00:51:55;22.83;;;13.40;;
41667;SDS011;27356;50.920;5.350;2023-01-19T00:54:21;19.27;;;12.00;;
41667;SDS011;27356;50.920;5.350;2023-01-19T00:56:47;22.25;;;12.15;;
41667;SDS011;27356;50.920;5.350;2023-01-19T00:59:12;23.02;;;12.80;;
41667;SDS011;27356;50.920;5.350;2023-01-19T01:01:38;22.42;;;12.40;;
41667;SDS011;27356;50.920;5.350;2023-01-19T01:04:04;24.08;;;13.93;;
41667;SDS011;27356;50.920;5.350;2023-01-19T01:06:29;23.13;;;13.65;;
41667;SDS011;27356;50.920;5.350;2023-01-19T01:08:55;21.70;;;12.13;;
41667;SDS011;27356;50.920;5.350;2023-01-19T01:11:21;23.00;;;12.93;;
41667;SDS011;27356;50.920;5.350;2023-01-19T01:13:46;26.75;;;15.20;;
41667;SDS011;27356;50.920;5.350;2023-01-19T01:16:15;23.33;;;13.70;;
41667;SDS011;27356;50.920;5.350;2023-01-19T01:18:41;26.65;;;13.65;;
41667;SDS011;27356;50.920;5.350;2023-01-19T01:21:08;25.17;;;14.13;;
41667;SDS011;27356;50.920;5.350;2023-01-19T01:23:37;24.95;;;14.95;;
41667;SDS011;27356;50.920;5.350;2023-01-19T01:26:03;24.92;;;14.05;;
41667;SDS011;27356;50.920;5.350;2023-01-19T01:28:29;24.48;;;14.43;;
41667;SDS011;27356;50.920;5.350;2023-01-19T01:30:56;25.55;;;14.45;;
41667;SDS011;27356;50.920;5.350;2023-01-19T01:33:22;27.73;;;15.60;;
41667;SDS011;27356;50.920;5.350;2023-01-19T01:35:48;29.40;;;15.35;;
41667;SDS011;27356;50.920;5.350;2023-01-19T01:38:15;25.98;;;13.82;;
41667;SDS011;27356;50.920;5.350;2023-01-19T01:40:41;26.77;;;15.50;;
41667;SDS011;27356;50.920;5.350;2023-01-19T01:43:14;25.65;;;14.38;;
41667;SDS011;27356;50.920;5.350;2023-01-19T01:45:41;25.23;;;13.70;;
41667;SDS011;27356;50.920;5.350;2023-01-19T01:50:36;22.70;;;13.15;;
41667;SDS011;27356;50.920;5.350;2023-01-19T01:53:25;31.08;;;14.57;;
41667;SDS011;27356;50.920;5.350;2023-01-19T01:55:53;25.23;;;14.35;;
41667;SDS011;27356;50.920;5.350;2023-01-19T01:58:19;25.38;;;13.45;;
41667;SDS011;27356;50.920;5.350;2023-01-19T02:00:46;19.90;;;13.07;;
41667;SDS011;27356;50.920;5.350;2023-01-19T02:03:30;26.05;;;13.60;;
41667;SDS011;27356;50.920;5.350;2023-01-19T02:05:58;25.02;;;14.00;;
41667;SDS011;27356;50.920;5.350;2023-01-19T02:11:12;27.77;;;15.25;;
41667;SDS011;27356;50.920;5.350;2023-01-19T02:13:57;25.67;;;13.85;;
41667;SDS011;27356;50.920;5.350;2023-01-19T02:16:22;26.85;;;14.45;;
41667;SDS011;27356;50.920;5.350;2023-01-19T02:18:48;27.45;;;14.63;;
41667;SDS011;27356;50.920;5.350;2023-01-19T02:21:21;28.17;;;14.95;;
41667;SDS011;27356;50.920;5.350;2023-01-19T02:24:11;27.67;;;14.50;;
41667;SDS011;27356;50.920;5.350;2023-01-19T02:26:41;26.75;;;14.35;;
41667;SDS011;27356;50.920;5.350;2023-01-19T02:29:11;30.92;;;16.25;;
41667;SDS011;27356;50.920;5.350;2023-01-19T02:31:40;27.88;;;14.73;;
41667;SDS011;27356;50.920;5.350;2023-01-19T02:34:10;29.48;;;14.57;;
41667;SDS011;27356;50.920;5.350;2023-01-19T02:39:14;28.27;;;15.57;;
41667;SDS011;27356;50.920;5.350;2023-01-19T02:41:54;26.70;;;14.40;;
41667;SDS011;27356;50.920;5.350;2023-01-19T02:44:25;26.90;;;15.07;;
41667;SDS011;27356;50.920;5.350;2023-01-19T02:46:54;31.73;;;14.73;;
41667;SDS011;27356;50.920;5.350;2023-01-19T02:49:21;25.38;;;14.00;;
41667;SDS011;27356;50.920;5.350;2023-01-19T02:51:47;29.50;;;15.52;;
41667;SDS011;27356;50.920;5.350;2023-01-19T03:00:10;25.83;;;14.65;;
41667;SDS011;27356;50.920;5.350;2023-01-19T03:11:36;23.13;;;14.15;;
41667;SDS011;27356;50.920;5.350;2023-01-19T03:14:07;32.53;;;15.93;;
41667;SDS011;27356;50.920;5.350;2023-01-19T03:17:09;28.98;;;15.93;;
41667;SDS011;27356;50.920;5.350;2023-01-19T03:19:34;23.77;;;14.23;;
41667;SDS011;27356;50.920;5.350;2023-01-19T03:22:04;33.53;;;15.48;;
41667;SDS011;27356;50.920;5.350;2023-01-19T03:24:35;30.70;;;15.05;;
41667;SDS011;27356;50.920;5.350;2023-01-19T03:27:19;30.75;;;15.23;;
41667;SDS011;27356;50.920;5.350;2023-01-19T03:30:00;31.40;;;15.43;;
41667;SDS011;27356;50.920;5.350;2023-01-19T03:32:31;34.17;;;16.55;;
41667;SDS011;27356;50.920;5.350;2023-01-19T03:35:02;30.15;;;15.07;;
41667;SDS011;27356;50.920;5.350;2023-01-19T03:37:35;33.95;;;15.95;;
41667;SDS011;27356;50.920;5.350;2023-01-19T03:40:03;28.63;;;14.70;;
41667;SDS011;27356;50.920;5.350;2023-01-19T03:42:29;27.63;;;15.55;;
41667;SDS011;27356;50.920;5.350;2023-01-19T03:44:55;25.58;;;14.45;;
41667;SDS011;27356;50.920;5.350;2023-01-19T03:47:25;25.92;;;14.10;;
41667;SDS011;27356;50.920;5.350;2023-01-19T03:49:51;28.75;;;15.02;;
41667;SDS011;27356;50.920;5.350;2023-01-19T03:52:25;27.65;;;13.85;;
41667;SDS011;27356;50.920;5.350;2023-01-19T03:54:52;28.65;;;14.73;;
41667;SDS011;27356;50.920;5.350;2023-01-19T03:57:18;31.33;;;15.90;;
41667;SDS011;27356;50.920;5.350;2023-01-19T03:59:43;33.45;;;14.27;;
41667;SDS011;27356;50.920;5.350;2023-01-19T04:02:09;26.10;;;14.65;;
41667;SDS011;27356;50.920;5.350;2023-01-19T04:04:35;29.92;;;14.80;;
41667;SDS011;27356;50.920;5.350;2023-01-19T04:07:00;30.17;;;15.23;;
41667;SDS011;27356;50.920;5.350;2023-01-19T04:09:27;28.42;;;14.90;;
41667;SDS011;27356;50.920;5.350;2023-01-19T04:11:52;33.30;;;14.98;;
41667;SDS011;27356;50.920;5.350;2023-01-19T04:14:18;33.55;;;14.88;;
41667;SDS011;27356;50.920;5.350;2023-01-19T04:16:44;34.97;;;14.73;;
41667;SDS011;27356;50.920;5.350;2023-01-19T04:19:10;28.77;;;14.63;;
41667;SDS011;27356;50.920;5.350;2023-01-19T04:21:36;30.25;;;14.40;;
41667;SDS011;27356;50.920;5.350;2023-01-19T04:24:01;31.13;;;16.05;;
41667;SDS011;27356;50.920;5.350;2023-01-19T04:26:27;28.90;;;14.73;;
41667;SDS011;27356;50.920;5.350;2023-01-19T04:28:53;31.50;;;16.67;;
41667;SDS011;27356;50.920;5.350;2023-01-19T04:31:19;31.20;;;16.30;;
41667;SDS011;27356;50.920;5.350;2023-01-19T04:33:44;30.30;;;15.60;;
41667;SDS011;27356;50.920;5.350;2023-01-19T04:36:10;33.42;;;16.73;;
41667;SDS011;27356;50.920;5.350;2023-01-19T04:38:36;32.03;;;16.17;;
41667;SDS011;27356;50.920;5.350;2023-01-19T04:41:02;41.50;;;17.23;;
41667;SDS011;27356;50.920;5.350;2023-01-19T04:43:28;32.00;;;16.90;;
41667;SDS011;27356;50.920;5.350;2023-01-19T04:45:53;33.70;;;15.73;;
41667;SDS011;27356;50.920;5.350;2023-01-19T04:48:19;31.83;;;15.93;;
41667;SDS011;27356;50.920;5.350;2023-01-19T04:50:45;28.40;;;15.45;;
41667;SDS011;27356;50.920;5.350;2023-01-19T04:53:11;34.40;;;15.68;;
41667;SDS011;27356;50.920;5.350;2023-01-19T04:55:38;32.92;;;15.68;;
41667;SDS011;27356;50.920;5.350;2023-01-19T04:58:03;29.73;;;15.70;;
41667;SDS011;27356;50.920;5.350;2023-01-19T05:00:29;30.38;;;15.40;;
41667;SDS011;27356;50.920;5.350;2023-01-19T05:02:55;32.97;;;15.30;;
41667;SDS011;27356;50.920;5.350;2023-01-19T05:05:21;29.27;;;14.15;;
41667;SDS011;27356;50.920;5.350;2023-01-19T05:07:46;29.23;;;13.48;;
41667;SDS011;27356;50.920;5.350;2023-01-19T05:10:12;28.42;;;14.07;;
41667;SDS011;27356;50.920;5.350;2023-01-19T05:12:38;33.38;;;15.70;;
41667;SDS011;27356;50.920;5.350;2023-01-19T05:15:04;34.00;;;16.35;;
41667;SDS011;27356;50.920;5.350;2023-01-19T05:17:33;31.48;;;14.80;;
41667;SDS011;27356;50.920;5.350;2023-01-19T05:19:59;37.42;;;15.93;;
41667;SDS011;27356;50.920;5.350;2023-01-19T05:22:25;33.90;;;16.13;;
41667;SDS011;27356;50.920;5.350;2023-01-19T05:24:50;32.72;;;15.93;;
41667;SDS011;27356;50.920;5.350;2023-01-19T05:27:16;30.90;;;15.93;;
41667;SDS011;27356;50.920;5.350;2023-01-19T05:29:42;33.35;;;15.35;;
41667;SDS011;27356;50.920;5.350;2023-01-19T05:32:07;30.65;;;15.50;;
41667;SDS011;27356;50.920;5.350;2023-01-19T05:34:37;35.85;;;16.30;;
41667;SDS011;27356;50.920;5.350;2023-01-19T05:37:03;29.77;;;15.32;;
41667;SDS011;27356;50.920;5.350;2023-01-19T05:39:29;35.40;;;14.85;;
41667;SDS011;27356;50.920;5.350;2023-01-19T05:41:54;32.55;;;14.88;;
41667;SDS011;27356;50.920;5.350;2023-01-19T05:44:20;31.85;;;14.00;;
41667;SDS011;27356;50.920;5.350;2023-01-19T05:46:46;33.55;;;15.43;;
41667;SDS011;27356;50.920;5.350;2023-01-19T05:49:12;38.38;;;16.20;;
41667;SDS011;27356;50.920;5.350;2023-01-19T05:51:38;32.70;;;14.75;;
41667;SDS011;27356;50.920;5.350;2023-01-19T05:54:04;35.13;;;15.10;;
41667;SDS011;27356;50.920;5.350;2023-01-19T05:56:32;38.42;;;16.63;;
41667;SDS011;27356;50.920;5.350;2023-01-19T05:58:59;32.45;;;16.25;;
41667;SDS011;27356;50.920;5.350;2023-01-19T06:01:25;36.10;;;16.65;;
41667;SDS011;27356;50.920;5.350;2023-01-19T06:03:51;38.05;;;15.15;;
41667;SDS011;27356;50.920;5.350;2023-01-19T06:06:17;31.98;;;15.45;;
41667;SDS011;27356;50.920;5.350;2023-01-19T06:08:43;39.10;;;16.70;;
41667;SDS011;27356;50.920;5.350;2023-01-19T06:11:09;37.35;;;16.27;;
41667;SDS011;27356;50.920;5.350;2023-01-19T06:13:35;36.22;;;15.65;;
41667;SDS011;27356;50.920;5.350;2023-01-19T06:16:03;26.92;;;15.52;;
41667;SDS011;27356;50.920;5.350;2023-01-19T06:18:29;29.58;;;15.70;;
41667;SDS011;27356;50.920;5.350;2023-01-19T06:20:55;27.85;;;15.25;;
41667;SDS011;27356;50.920;5.350;2023-01-19T06:23:24;30.67;;;14.98;;
41667;SDS011;27356;50.920;5.350;2023-01-19T06:25:50;35.65;;;14.55;;
41667;SDS011;27356;50.920;5.350;2023-01-19T06:28:17;35.22;;;16.08;;
41667;SDS011;27356;50.920;5.350;2023-01-19T06:30:45;31.38;;;15.52;;
41667;SDS011;27356;50.920;5.350;2023-01-19T06:33:13;30.02;;;15.20;;
41667;SDS011;27356;50.920;5.350;2023-01-19T06:35:41;32.63;;;16.17;;
41667;SDS011;27356;50.920;5.350;2023-01-19T06:38:11;31.83;;;15.70;;
41667;SDS011;27356;50.920;5.350;2023-01-19T06:40:38;39.03;;;18.17;;
41667;SDS011;27356;50.920;5.350;2023-01-19T06:43:05;34.78;;;17.05;;
41667;SDS011;27356;50.920;5.350;2023-01-19T06:45:38;33.28;;;15.98;;
41667;SDS011;27356;50.920;5.350;2023-01-19T06:48:08;31.20;;;16.75;;
41667;SDS011;27356;50.920;5.350;2023-01-19T06:50:33;35.67;;;17.40;;
41667;SDS011;27356;50.920;5.350;2023-01-19T06:52:59;41.72;;;16.15;;
41667;SDS011;27356;50.920;5.350;2023-01-19T06:55:25;34.25;;;15.77;;
41667;SDS011;27356;50.920;5.350;2023-01-19T06:57:57;34.17;;;15.95;;
41667;SDS011;27356;50.920;5.350;2023-01-19T07:00:24;29.73;;;14.95;;
41667;SDS011;27356;50.920;5.350;2023-01-19T07:02:50;31.30;;;15.35;;
41667;SDS011;27356;50.920;5.350;2023-01-19T07:05:16;38.13;;;16.98;;
41667;SDS011;27356;50.920;5.350;2023-01-19T07:07:41;38.88;;;17.55;;
41667;SDS011;27356;50.920;5.350;2023-01-19T07:10:09;36.92;;;17.50;;
41667;SDS011;27356;50.920;5.350;2023-01-19T07:12:36;36.40;;;17.75;;
41667;SDS011;27356;50.920;5.350;2023-01-19T07:15:03;33.67;;;17.35;;
41667;SDS011;27356;50.920;5.350;2023-01-19T07:17:30;33.17;;;17.73;;
41667;SDS011;27356;50.920;5.350;2023-01-19T07:19:55;36.22;;;17.70;;
41667;SDS011;27356;50.920;5.350;2023-01-19T07:22:21;32.30;;;17.90;;
41667;SDS011;27356;50.920;5.350;2023-01-19T07:24:47;29.85;;;16.08;;
41667;SDS011;27356;50.920;5.350;2023-01-19T07:27:13;34.17;;;17.17;;
41667;SDS011;27356;50.920;5.350;2023-01-19T07:29:40;33.28;;;15.90;;
41667;SDS011;27356;50.920;5.350;2023-01-19T07:32:06;38.20;;;16.27;;
41667;SDS011;27356;50.920;5.350;2023-01-19T07:34:35;39.15;;;17.02;;
41667;SDS011;27356;50.920;5.350;2023-01-19T07:37:01;32.50;;;15.82;;
41667;SDS011;27356;50.920;5.350;2023-01-19T07:39:27;31.10;;;15.90;;
41667;SDS011;27356;50.920;5.350;2023-01-19T07:41:54;28.50;;;15.68;;
41667;SDS011;27356;50.920;5.350;2023-01-19T07:44:20;36.50;;;16.98;;
41667;SDS011;27356;50.920;5.350;2023-01-19T07:46:46;31.60;;;15.70;;
41667;SDS011;27356;50.920;5.350;2023-01-19T07:49:11;32.53;;;15.10;;
41667;SDS011;27356;50.920;5.350;2023-01-19T07:51:37;33.92;;;15.68;;
41667;SDS011;27356;50.920;5.350;2023-01-19T07:54:03;29.65;;;15.60;;
41667;SDS011;27356;50.920;5.350;2023-01-19T07:56:29;31.65;;;15.63;;
41667;SDS011;27356;50.920;5.350;2023-01-19T07:58:57;32.95;;;15.02;;
41667;SDS011;27356;50.920;5.350;2023-01-19T08:01:22;32.63;;;15.98;;
41667;SDS011;27356;50.920;5.350;2023-01-19T08:03:48;36.80;;;16.77;;
41667;SDS011;27356;50.920;5.350;2023-01-19T08:06:17;34.63;;;16.00;;
41667;SDS011;27356;50.920;5.350;2023-01-19T08:08:47;32.88;;;16.77;;
41667;SDS011;27356;50.920;5.350;2023-01-19T08:11:13;26.90;;;15.55;;
41667;SDS011;27356;50.920;5.350;2023-01-19T08:13:39;36.67;;;15.75;;
41667;SDS011;27356;50.920;5.350;2023-01-19T08:16:05;40.85;;;16.85;;
41667;SDS011;27356;50.920;5.350;2023-01-19T08:18:31;32.72;;;16.42;;
41667;SDS011;27356;50.920;5.350;2023-01-19T08:21:00;37.35;;;17.80;;
41667;SDS011;27356;50.920;5.350;2023-01-19T08:23:26;35.38;;;15.52;;
41667;SDS011;27356;50.920;5.350;2023-01-19T08:25:55;28.48;;;17.50;;
41667;SDS011;27356;50.920;5.350;2023-01-19T08:28:21;38.53;;;17.35;;
41667;SDS011;27356;50.920;5.350;2023-01-19T08:30:47;46.13;;;17.98;;
41667;SDS011;27356;50.920;5.350;2023-01-19T08:33:18;39.75;;;17.83;;
41667;SDS011;27356;50.920;5.350;2023-01-19T08:35:48;35.15;;;17.38;;
41667;SDS011;27356;50.920;5.350;2023-01-19T08:38:18;33.70;;;17.63;;
41667;SDS011;27356;50.920;5.350;2023-01-19T08:40:44;34.13;;;17.23;;
41667;SDS011;27356;50.920;5.350;2023-01-19T08:43:11;39.38;;;16.77;;
41667;SDS011;27356;50.920;5.350;2023-01-19T08:45:39;32.97;;;16.13;;
41667;SDS011;27356;50.920;5.350;2023-01-19T08:48:12;32.35;;;15.80;;
41667;SDS011;27356;50.920;5.350;2023-01-19T08:50:39;28.85;;;14.85;;
41667;SDS011;27356;50.920;5.350;2023-01-19T08:53:04;35.28;;;16.65;;
41667;SDS011;27356;50.920;5.350;2023-01-19T08:55:32;32.58;;;16.95;;
41667;SDS011;27356;50.920;5.350;2023-01-19T08:57:59;41.38;;;18.00;;
41667;SDS011;27356;50.920;5.350;2023-01-19T09:00:26;39.42;;;17.80;;
41667;SDS011;27356;50.920;5.350;2023-01-19T09:02:52;41.70;;;18.73;;
41667;SDS011;27356;50.920;5.350;2023-01-19T09:05:19;39.70;;;17.50;;
41667;SDS011;27356;50.920;5.350;2023-01-19T09:07:45;37.13;;;17.05;;
41667;SDS011;27356;50.920;5.350;2023-01-19T09:10:15;38.55;;;17.75;;
41667;SDS011;27356;50.920;5.350;2023-01-19T09:12:42;35.97;;;17.13;;
41667;SDS011;27356;50.920;5.350;2023-01-19T09:15:10;31.55;;;15.50;;
41667;SDS011;27356;50.920;5.350;2023-01-19T09:17:37;35.05;;;17.13;;
41667;SDS011;27356;50.920;5.350;2023-01-19T09:20:05;33.83;;;16.20;;
41667;SDS011;27356;50.920;5.350;2023-01-19T09:22:31;35.20;;;17.25;;
41667;SDS011;27356;50.920;5.350;2023-01-19T09:24:57;30.73;;;15.98;;
41667;SDS011;27356;50.920;5.350;2023-01-19T09:27:23;31.00;;;15.98;;
41667;SDS011;27356;50.920;5.350;2023-01-19T09:29:49;33.30;;;16.13;;
41667;SDS011;27356;50.920;5.350;2023-01-19T09:32:18;35.53;;;16.60;;
41667;SDS011;27356;50.920;5.350;2023-01-19T09:34:44;31.50;;;15.90;;
41667;SDS011;27356;50.920;5.350;2023-01-19T09:37:10;34.20;;;16.15;;
41667;SDS011;27356;50.920;5.350;2023-01-19T09:39:36;26.35;;;15.25;;
41667;SDS011;27356;50.920;5.350;2023-01-19T09:42:05;32.00;;;15.10;;
41667;SDS011;27356;50.920;5.350;2023-01-19T09:45:06;30.70;;;15.52;;
41667;SDS011;27356;50.920;5.350;2023-01-19T09:47:40;29.40;;;15.40;;
41667;SDS011;27356;50.920;5.350;2023-01-19T09:50:12;30.58;;;15.88;;
41667;SDS011;27356;50.920;5.350;2023-01-19T09:52:51;35.92;;;16.45;;
41667;SDS011;27356;50.920;5.350;2023-01-19T09:55:45;29.63;;;16.52;;
41667;SDS011;27356;50.920;5.350;2023-01-19T09:58:12;28.65;;;14.63;;
41667;SDS011;27356;50.920;5.350;2023-01-19T10:00:42;28.63;;;14.43;;
41667;SDS011;27356;50.920;5.350;2023-01-19T10:03:15;26.00;;;15.27;;
41667;SDS011;27356;50.920;5.350;2023-01-19T10:05:43;33.08;;;16.17;;
41667;SDS011;27356;50.920;5.350;2023-01-19T10:08:59;28.35;;;14.77;;
41667;SDS011;27356;50.920;5.350;2023-01-19T10:10:59;34.85;;;17.63;;
41667;SDS011;27356;50.920;5.350;2023-01-19T10:13:39;39.95;;;17.30;;
41667;SDS011;27356;50.920;5.350;2023-01-19T10:18:47;37.40;;;15.93;;
41667;SDS011;27356;50.920;5.350;2023-01-19T10:21:36;36.22;;;17.42;;
41667;SDS011;27356;50.920;5.350;2023-01-19T10:24:15;34.83;;;16.80;;
41667;SDS011;27356;50.920;5.350;2023-01-19T10:26:48;32.85;;;18.27;;
41667;SDS011;27356;50.920;5.350;2023-01-19T10:29:37;32.65;;;16.65;;
41667;SDS011;27356;50.920;5.350;2023-01-19T10:34:43;33.17;;;17.23;;
41667;SDS011;27356;50.920;5.350;2023-01-19T10:39:41;38.53;;;16.97;;
41667;SDS011;27356;50.920;5.350;2023-01-19T10:42:15;35.63;;;17.08;;
41667;SDS011;27356;50.920;5.350;2023-01-19T10:44:41;40.30;;;18.05;;
41667;SDS011;27356;50.920;5.350;2023-01-19T10:47:16;31.20;;;16.67;;
41667;SDS011;27356;50.920;5.350;2023-01-19T10:49:44;30.65;;;16.15;;
41667;SDS011;27356;50.920;5.350;2023-01-19T10:55:22;39.70;;;17.60;;
41667;SDS011;27356;50.920;5.350;2023-01-19T10:57:53;34.85;;;16.52;;
41667;SDS011;27356;50.920;5.350;2023-01-19T11:03:27;31.65;;;15.60;;
41667;SDS011;27356;50.920;5.350;2023-01-19T11:05:57;31.67;;;15.93;;
41667;SDS011;27356;50.920;5.350;2023-01-19T11:08:44;32.90;;;15.98;;
41667;SDS011;27356;50.920;5.350;2023-01-19T11:11:11;30.88;;;15.40;;
41667;SDS011;27356;50.920;5.350;2023-01-19T11:13:37;33.95;;;17.55;;
41667;SDS011;27356;50.920;5.350;2023-01-19T11:18:37;39.45;;;16.95;;
41667;SDS011;27356;50.920;5.350;2023-01-19T11:21:08;32.25;;;16.48;;
41667;SDS011;27356;50.920;5.350;2023-01-19T11:23:41;33.45;;;16.38;;
41667;SDS011;27356;50.920;5.350;2023-01-19T11:26:14;38.15;;;16.83;;
41667;SDS011;27356;50.920;5.350;2023-01-19T11:28:48;29.45;;;14.93;;
41667;SDS011;27356;50.920;5.350;2023-01-19T11:33:54;35.53;;;15.65;;
41667;SDS011;27356;50.920;5.350;2023-01-19T11:36:25;28.48;;;15.05;;
41667;SDS011;27356;50.920;5.350;2023-01-19T11:38:53;25.92;;;14.55;;
41667;SDS011;27356;50.920;5.350;2023-01-19T11:44:15;26.20;;;12.75;;
41667;SDS011;27356;50.920;5.350;2023-01-19T11:46:58;27.73;;;13.68;;
41667;SDS011;27356;50.920;5.350;2023-01-19T11:54:32;30.60;;;13.35;;
41667;SDS011;27356;50.920;5.350;2023-01-19T11:57:05;22.40;;;12.88;;
41667;SDS011;27356;50.920;5.350;2023-01-19T11:59:37;27.95;;;13.95;;
41667;SDS011;27356;50.920;5.350;2023-01-19T12:02:03;21.83;;;12.52;;
41667;SDS011;27356;50.920;5.350;2023-01-19T12:05:04;25.55;;;13.50;;
41667;SDS011;27356;50.920;5.350;2023-01-19T12:07:33;28.88;;;13.45;;
41667;SDS011;27356;50.920;5.350;2023-01-19T12:12:38;22.83;;;12.18;;
41667;SDS011;27356;50.920;5.350;2023-01-19T12:18:18;24.65;;;12.35;;
41667;SDS011;27356;50.920;5.350;2023-01-19T12:20:53;19.20;;;11.75;;
41667;SDS011;27356;50.920;5.350;2023-01-19T12:23:34;27.80;;;12.45;;
41667;SDS011;27356;50.920;5.350;2023-01-19T12:28:46;22.30;;;11.52;;
41667;SDS011;27356;50.920;5.350;2023-01-19T12:31:22;31.10;;;11.63;;
41667;SDS011;27356;50.920;5.350;2023-01-19T12:33:48;29.88;;;11.60;;
41667;SDS011;27356;50.920;5.350;2023-01-19T12:41:45;23.27;;;10.95;;
41667;SDS011;27356;50.920;5.350;2023-01-19T12:46:55;21.35;;;11.05;;
41667;SDS011;27356;50.920;5.350;2023-01-19T12:49:28;25.77;;;11.27;;
41667;SDS011;27356;50.920;5.350;2023-01-19T12:54:48;25.35;;;11.63;;
41667;SDS011;27356;50.920;5.350;2023-01-19T12:57:52;23.73;;;11.52;;
41667;SDS011;27356;50.920;5.350;2023-01-19T13:02:49;19.77;;;10.95;;
41667;SDS011;27356;50.920;5.350;2023-01-19T13:15:51;22.88;;;10.95;;
41667;SDS011;27356;50.920;5.350;2023-01-19T13:20:59;16.08;;;9.85;;
41667;SDS011;27356;50.920;5.350;2023-01-19T13:23:49;20.33;;;9.63;;
41667;SDS011;27356;50.920;5.350;2023-01-19T13:26:19;19.75;;;9.15;;
41667;SDS011;27356;50.920;5.350;2023-01-19T13:28:51;19.98;;;10.30;;
41667;SDS011;27356;50.920;5.350;2023-01-19T13:31:19;20.63;;;10.25;;
41667;SDS011;27356;50.920;5.350;2023-01-19T13:39:00;21.58;;;9.18;;
41667;SDS011;27356;50.920;5.350;2023-01-19T13:41:30;14.13;;;8.45;;
41667;SDS011;27356;50.920;5.350;2023-01-19T13:44:02;18.77;;;9.45;;
41667;SDS011;27356;50.920;5.350;2023-01-19T13:46:45;15.82;;;7.80;;
41667;SDS011;27356;50.920;5.350;2023-01-19T13:49:14;15.40;;;7.15;;
41667;SDS011;27356;50.920;5.350;2023-01-19T13:54:48;14.88;;;6.22;;
41667;SDS011;27356;50.920;5.350;2023-01-19T14:00:01;12.02;;;7.18;;
41667;SDS011;27356;50.920;5.350;2023-01-19T14:02:29;14.75;;;7.10;;
41667;SDS011;27356;50.920;5.350;2023-01-19T14:04:55;11.95;;;6.75;;
41667;SDS011;27356;50.920;5.350;2023-01-19T14:07:21;13.02;;;6.25;;
41667;SDS011;27356;50.920;5.350;2023-01-19T14:10:06;11.05;;;6.50;;
41667;SDS011;27356;50.920;5.350;2023-01-19T14:12:38;14.55;;;6.60;;
41667;SDS011;27356;50.920;5.350;2023-01-19T14:15:04;11.95;;;6.57;;
41667;SDS011;27356;50.920;5.350;2023-01-19T14:17:37;16.00;;;7.22;;
41667;SDS011;27356;50.920;5.350;2023-01-19T14:20:02;14.82;;;6.95;;
41667;SDS011;27356;50.920;5.350;2023-01-19T14:22:36;13.75;;;6.68;;
41667;SDS011;27356;50.920;5.350;2023-01-19T14:33:33;16.60;;;8.05;;
41667;SDS011;27356;50.920;5.350;2023-01-19T14:39:12;23.80;;;8.93;;
41667;SDS011;27356;50.920;5.350;2023-01-19T14:41:45;18.55;;;8.95;;
41667;SDS011;27356;50.920;5.350;2023-01-19T14:44:16;20.67;;;8.02;;
41667;SDS011;27356;50.920;5.350;2023-01-19T14:46:52;13.18;;;7.88;;
41667;SDS011;27356;50.920;5.350;2023-01-19T14:49:20;21.95;;;9.18;;
41667;SDS011;27356;50.920;5.350;2023-01-19T14:51:53;28.95;;;11.45;;
41667;SDS011;27356;50.920;5.350;2023-01-19T14:54:28;36.35;;;13.60;;
41667;SDS011;27356;50.920;5.350;2023-01-19T14:56:59;51.72;;;17.20;;
41667;SDS011;27356;50.920;5.350;2023-01-19T14:59:24;34.15;;;13.00;;
41667;SDS011;27356;50.920;5.350;2023-01-19T15:01:50;39.90;;;14.93;;
41667;SDS011;27356;50.920;5.350;2023-01-19T15:04:16;44.78;;;16.48;;
41667;SDS011;27356;50.920;5.350;2023-01-19T15:06:41;40.10;;;13.93;;
41667;SDS011;27356;50.920;5.350;2023-01-19T15:09:13;28.10;;;10.90;;
41667;SDS011;27356;50.920;5.350;2023-01-19T15:11:40;18.98;;;8.73;;
41667;SDS011;27356;50.920;5.350;2023-01-19T15:14:07;19.55;;;8.57;;
41667;SDS011;27356;50.920;5.350;2023-01-19T15:16:37;15.60;;;7.65;;
41667;SDS011;27356;50.920;5.350;2023-01-19T15:19:03;24.50;;;8.27;;
41667;SDS011;27356;50.920;5.350;2023-01-19T15:21:29;18.67;;;9.25;;
41667;SDS011;27356;50.920;5.350;2023-01-19T15:23:54;20.30;;;8.52;;
41667;SDS011;27356;50.920;5.350;2023-01-19T15:26:22;17.02;;;8.00;;
41667;SDS011;27356;50.920;5.350;2023-01-19T15:28:49;23.95;;;8.68;;
41667;SDS011;27356;50.920;5.350;2023-01-19T15:31:19;16.77;;;7.47;;
41667;SDS011;27356;50.920;5.350;2023-01-19T15:33:46;11.95;;;7.47;;
41667;SDS011;27356;50.920;5.350;2023-01-19T15:36:16;28.80;;;8.95;;
41667;SDS011;27356;50.920;5.350;2023-01-19T15:38:44;29.05;;;8.40;;
41667;SDS011;27356;50.920;5.350;2023-01-19T15:41:16;22.60;;;8.15;;
41667;SDS011;27356;50.920;5.350;2023-01-19T15:43:50;15.15;;;8.20;;
41667;SDS011;27356;50.920;5.350;2023-01-19T15:46:19;20.40;;;8.65;;
41667;SDS011;27356;50.920;5.350;2023-01-19T15:48:46;18.00;;;8.50;;
41667;SDS011;27356;50.920;5.350;2023-01-19T15:51:14;19.73;;;8.35;;
41667;SDS011;27356;50.920;5.350;2023-01-19T15:53:42;20.27;;;9.38;;
41667;SDS011;27356;50.920;5.350;2023-01-19T15:58:41;17.25;;;8.23;;
41667;SDS011;27356;50.920;5.350;2023-01-19T16:01:15;16.30;;;8.73;;
41667;SDS011;27356;50.920;5.350;2023-01-19T16:03:43;22.23;;;8.77;;
41667;SDS011;27356;50.920;5.350;2023-01-19T16:06:09;19.00;;;8.63;;
41667;SDS011;27356;50.920;5.350;2023-01-19T16:08:35;20.15;;;9.73;;
41667;SDS011;27356;50.920;5.350;2023-01-19T16:11:05;25.60;;;9.20;;
41667;SDS011;27356;50.920;5.350;2023-01-19T16:13:35;25.02;;;9.32;;
41667;SDS011;27356;50.920;5.350;2023-01-19T16:16:05;17.75;;;9.98;;
41667;SDS011;27356;50.920;5.350;2023-01-19T16:18:33;20.38;;;9.57;;
41667;SDS011;27356;50.920;5.350;2023-01-19T16:20:59;26.95;;;10.63;;
41667;SDS011;27356;50.920;5.350;2023-01-19T16:23:25;22.17;;;10.10;;